Sansom Park, Texas
Current Conditions -  °F | °C
As of 3:52 PM on Friday 24 Oct 2014 (Local Time) from KNFW Reporting Station
Few Clouds Few Clouds  
Wind Chill: 89°   Ceiling: Unl
Heat Index: 89°   Visibility: 10mi
Dew Point: 58°   Wind: 14mph
Humidity: 35%   Direction: 180°S
Pressure: 30.1"   Gusts: 18mph
Location:  32.7763°N, 97.4092°W
Report Text: KNFW 242052Z 18012G16KT 10SM FEW050 FEW250 32/14 A3010 RMK AO2 SLP176 T03170144 56024 VISNO N $
Loading
Personal Weather Stations






























Interactive Weather Map
Tropical Storm Tracking
New forecast layout! Learn more

10-Day Weather Forecast

Advertisements
Track Severe Weather on mobile